<?xml version="1.0" encoding="UTF-8"?>
<gpx version="1.1" creator="2bulu-scraper" xmlns="http://www.topografix.com/GPX/1/1">
  <metadata><name>峨眉后山到万佛顶20260809072041</name><desc>source: 2bulu.com trackId=88890901; exported 2026-09-01T16:49:32.457Z</desc>
    <bounds minlat="29.482828" minlon="103.282182" maxlat="29.51078" maxlon="103.332354"/>
    <link href="https://www.2bulu.com/track/t-65SmVOhZsyvp%252FR2KBg5Tzw%253D%253D.htm"><text>2bulu 源页面</text></link>
  </metadata>
  <wpt lat="29.483325" lon="103.28443"><ele>1838</ele><name></name></wpt>
  <wpt lat="29.49067" lon="103.283592"><ele>1919</ele><name></name></wpt>
  <wpt lat="29.49943" lon="103.285928"><ele>1997</ele><name></name></wpt>
  <wpt lat="29.506763" lon="103.295088"><ele>2206</ele><name></name></wpt>
  <wpt lat="29.504455" lon="103.302187"><ele>2303</ele><name></name></wpt>
  <wpt lat="29.504992" lon="103.30452"><ele>2354</ele><name></name></wpt>
  <wpt lat="29.505037" lon="103.305092"><ele>2355</ele><name></name></wpt>
  <wpt lat="29.504908" lon="103.31633"><ele>2737</ele><name></name></wpt>
  <wpt lat="29.505428" lon="103.317208"><ele>2763</ele><name></name></wpt>
  <wpt lat="29.506078" lon="103.321495"><ele>2889</ele><name></name></wpt>
  <wpt lat="29.506962" lon="103.32338"><ele>2926</ele><name></name></wpt>
  <wpt lat="29.507092" lon="103.324858"><ele>2920</ele><name></name></wpt>
  <wpt lat="29.507058" lon="103.32692"><ele>3012</ele><name></name></wpt>
  <wpt lat="29.509725" lon="103.328208"><ele>3012</ele><name></name></wpt>
  <wpt lat="29.510578" lon="103.329842"><ele>3040</ele><name></name></wpt>
  <wpt lat="29.510697" lon="103.330558"><ele>3055</ele><name></name></wpt>
  <wpt lat="29.51005" lon="103.332253"><ele>3100</ele><name></name></wpt>
  <wpt lat="29.510205" lon="103.332253"><ele>3095</ele><name></name></wpt>
  <trk><name>峨眉后山到万佛顶20260809072041</name>
      <trkseg>
        <trkpt lat="29.48329" lon="103.282338"><ele>1924</ele><time>2026-08-08T15:20:46.000Z</time></trkpt>
        <trkpt lat="29.483595" lon="103.282415"><ele>1921</ele><time>2026-08-08T15:21:16.000Z</time></trkpt>
        <trkpt lat="29.483652" lon="103.282861"><ele>1914</ele><time>2026-08-08T15:22:16.000Z</time></trkpt>
        <trkpt lat="29.483245" lon="103.283687"><ele>1898</ele><time>2026-08-08T15:23:52.000Z</time></trkpt>
        <trkpt lat="29.482883" lon="103.28389"><ele>1894</ele><time>2026-08-08T15:24:35.000Z</time></trkpt>
        <trkpt lat="29.482828" lon="103.284417"><ele>1887</ele><time>2026-08-08T15:25:29.000Z</time></trkpt>
        <trkpt lat="29.483556" lon="103.284282"><ele>1887</ele><time>2026-08-08T15:26:50.000Z</time></trkpt>
        <trkpt lat="29.484338" lon="103.283846"><ele>1889</ele><time>2026-08-08T15:28:04.000Z</time></trkpt>
        <trkpt lat="29.484509" lon="103.28356"><ele>1889</ele><time>2026-08-08T15:28:34.000Z</time></trkpt>
        <trkpt lat="29.485909" lon="103.283956"><ele>1906</ele><time>2026-08-08T15:33:10.000Z</time></trkpt>
        <trkpt lat="29.486832" lon="103.283626"><ele>1918</ele><time>2026-08-08T15:34:28.000Z</time></trkpt>
        <trkpt lat="29.487208" lon="103.284075"><ele>1925</ele><time>2026-08-08T15:35:37.000Z</time></trkpt>
        <trkpt lat="29.488283" lon="103.284063"><ele>1935</ele><time>2026-08-08T15:37:48.000Z</time></trkpt>
        <trkpt lat="29.488746" lon="103.283861"><ele>1937</ele><time>2026-08-08T15:38:45.000Z</time></trkpt>
        <trkpt lat="29.489259" lon="103.284159"><ele>1942</ele><time>2026-08-08T15:39:55.000Z</time></trkpt>
        <trkpt lat="29.489473" lon="103.283722"><ele>1949</ele><time>2026-08-08T15:40:53.000Z</time></trkpt>
        <trkpt lat="29.489739" lon="103.28358"><ele>1953</ele><time>2026-08-08T15:41:28.000Z</time></trkpt>
        <trkpt lat="29.490076" lon="103.28357"><ele>1956</ele><time>2026-08-08T15:42:07.000Z</time></trkpt>
        <trkpt lat="29.490506" lon="103.283804"><ele>1959</ele><time>2026-08-08T15:43:05.000Z</time></trkpt>
        <trkpt lat="29.491018" lon="103.283113"><ele>1964</ele><time>2026-08-08T15:44:42.000Z</time></trkpt>
        <trkpt lat="29.491218" lon="103.283317"><ele>1965</ele><time>2026-08-08T15:45:13.000Z</time></trkpt>
        <trkpt lat="29.49177" lon="103.283195"><ele>1969</ele><time>2026-08-08T15:46:32.000Z</time></trkpt>
        <trkpt lat="29.49223" lon="103.28221"><ele>1973</ele><time>2026-08-08T15:48:44.000Z</time></trkpt>
        <trkpt lat="29.492412" lon="103.282593"><ele>1975</ele><time>2026-08-08T15:49:27.000Z</time></trkpt>
        <trkpt lat="29.492911" lon="103.282182"><ele>1977</ele><time>2026-08-08T15:50:31.000Z</time></trkpt>
        <trkpt lat="29.493514" lon="103.282397"><ele>1978</ele><time>2026-08-08T15:51:40.000Z</time></trkpt>
        <trkpt lat="29.493811" lon="103.282722"><ele>1980</ele><time>2026-08-08T15:52:29.000Z</time></trkpt>
        <trkpt lat="29.49462" lon="103.282854"><ele>1984</ele><time>2026-08-08T15:53:58.000Z</time></trkpt>
        <trkpt lat="29.495295" lon="103.283321"><ele>1988</ele><time>2026-08-08T15:55:13.000Z</time></trkpt>
        <trkpt lat="29.495593" lon="103.283238"><ele>1991</ele><time>2026-08-08T15:55:46.000Z</time></trkpt>
        <trkpt lat="29.495999" lon="103.283539"><ele>1993</ele><time>2026-08-08T15:56:37.000Z</time></trkpt>
        <trkpt lat="29.496582" lon="103.283462"><ele>1996</ele><time>2026-08-08T15:57:35.000Z</time></trkpt>
        <trkpt lat="29.496923" lon="103.28304"><ele>1996</ele><time>2026-08-08T15:58:30.000Z</time></trkpt>
        <trkpt lat="29.49722" lon="103.283709"><ele>2001</ele><time>2026-08-08T15:59:34.000Z</time></trkpt>
        <trkpt lat="29.497148" lon="103.283882"><ele>2003</ele><time>2026-08-08T15:59:53.000Z</time></trkpt>
        <trkpt lat="29.497645" lon="103.284597"><ele>2012</ele><time>2026-08-08T16:01:22.000Z</time></trkpt>
        <trkpt lat="29.498357" lon="103.284647"><ele>2019</ele><time>2026-08-08T16:02:38.000Z</time></trkpt>
        <trkpt lat="29.498702" lon="103.284899"><ele>2024</ele><time>2026-08-08T16:03:25.000Z</time></trkpt>
        <trkpt lat="29.499119" lon="103.284958"><ele>2030</ele><time>2026-08-08T16:04:12.000Z</time></trkpt>
        <trkpt lat="29.499076" lon="103.285403"><ele>2035</ele><time>2026-08-08T16:05:03.000Z</time></trkpt>
        <trkpt lat="29.499439" lon="103.286022"><ele>2044</ele><time>2026-08-08T16:06:41.000Z</time></trkpt>
        <trkpt lat="29.500332" lon="103.286244"><ele>2051</ele><time>2026-08-08T16:08:14.000Z</time></trkpt>
        <trkpt lat="29.500828" lon="103.286754"><ele>2059</ele><time>2026-08-08T16:09:38.000Z</time></trkpt>
        <trkpt lat="29.50147" lon="103.286886"><ele>2067</ele><time>2026-08-08T16:10:54.000Z</time></trkpt>
        <trkpt lat="29.50123" lon="103.287175"><ele>2071</ele><time>2026-08-08T16:11:42.000Z</time></trkpt>
        <trkpt lat="29.501379" lon="103.28788"><ele>2077</ele><time>2026-08-08T16:13:04.000Z</time></trkpt>
        <trkpt lat="29.500945" lon="103.288281"><ele>2086</ele><time>2026-08-08T16:14:17.000Z</time></trkpt>
        <trkpt lat="29.501113" lon="103.288664"><ele>2089</ele><time>2026-08-08T16:15:07.000Z</time></trkpt>
        <trkpt lat="29.502273" lon="103.288169"><ele>2097</ele><time>2026-08-08T16:18:49.000Z</time></trkpt>
        <trkpt lat="29.502626" lon="103.288229"><ele>2102</ele><time>2026-08-08T16:19:28.000Z</time></trkpt>
        <trkpt lat="29.503243" lon="103.289784"><ele>2117</ele><time>2026-08-08T16:22:37.000Z</time></trkpt>
        <trkpt lat="29.503863" lon="103.289796"><ele>2123</ele><time>2026-08-08T16:24:14.000Z</time></trkpt>
        <trkpt lat="29.504033" lon="103.290093"><ele>2126</ele><time>2026-08-08T16:24:57.000Z</time></trkpt>
        <trkpt lat="29.504514" lon="103.290188"><ele>2130</ele><time>2026-08-08T16:25:47.000Z</time></trkpt>
        <trkpt lat="29.50434" lon="103.290609"><ele>2138</ele><time>2026-08-08T16:26:47.000Z</time></trkpt>
        <trkpt lat="29.504418" lon="103.291008"><ele>2143</ele><time>2026-08-08T16:27:35.000Z</time></trkpt>
        <trkpt lat="29.505363" lon="103.291997"><ele>2156</ele><time>2026-08-08T16:30:17.000Z</time></trkpt>
        <trkpt lat="29.50577" lon="103.292133"><ele>2163</ele><time>2026-08-08T16:31:24.000Z</time></trkpt>
        <trkpt lat="29.506294" lon="103.292994"><ele>2176</ele><time>2026-08-08T16:33:37.000Z</time></trkpt>
        <trkpt lat="29.506017" lon="103.293375"><ele>2183</ele><time>2026-08-08T16:34:50.000Z</time></trkpt>
        <trkpt lat="29.506007" lon="103.293906"><ele>2191</ele><time>2026-08-08T16:36:04.000Z</time></trkpt>
        <trkpt lat="29.506297" lon="103.294191"><ele>2199</ele><time>2026-08-08T16:37:36.000Z</time></trkpt>
        <trkpt lat="29.506772" lon="103.29429"><ele>2206</ele><time>2026-08-08T16:38:49.000Z</time></trkpt>
        <trkpt lat="29.506838" lon="103.294477"><ele>2208</ele><time>2026-08-08T16:39:08.000Z</time></trkpt>
        <trkpt lat="29.506711" lon="103.294806"><ele>2214</ele><time>2026-08-08T16:39:51.000Z</time></trkpt>
        <trkpt lat="29.506833" lon="103.29535"><ele>2221</ele><time>2026-08-08T16:41:27.000Z</time></trkpt>
        <trkpt lat="29.506605" lon="103.297807"><ele>2250</ele><time>2026-08-08T16:46:52.000Z</time></trkpt>
        <trkpt lat="29.505585" lon="103.298388"><ele>2262</ele><time>2026-08-08T16:49:38.000Z</time></trkpt>
        <trkpt lat="29.505208" lon="103.299296"><ele>2270</ele><time>2026-08-08T16:51:25.000Z</time></trkpt>
        <trkpt lat="29.504239" lon="103.299125"><ele>2281</ele><time>2026-08-08T16:53:32.000Z</time></trkpt>
        <trkpt lat="29.503979" lon="103.298711"><ele>2282</ele><time>2026-08-08T16:54:18.000Z</time></trkpt>
        <trkpt lat="29.503401" lon="103.2991"><ele>2285</ele><time>2026-08-08T16:55:48.000Z</time></trkpt>
        <trkpt lat="29.503581" lon="103.30049"><ele>2297</ele><time>2026-08-08T16:58:18.000Z</time></trkpt>
        <trkpt lat="29.504477" lon="103.302314"><ele>2308</ele><time>2026-08-08T17:02:56.000Z</time></trkpt>
        <trkpt lat="29.504725" lon="103.302458"><ele>2311</ele><time>2026-08-08T17:03:28.000Z</time></trkpt>
        <trkpt lat="29.504428" lon="103.303331"><ele>2322</ele><time>2026-08-08T17:06:12.000Z</time></trkpt>
        <trkpt lat="29.505083" lon="103.303098"><ele>2334</ele><time>2026-08-08T17:11:19.000Z</time></trkpt>
        <trkpt lat="29.505481" lon="103.303783"><ele>2348</ele><time>2026-08-08T17:13:24.000Z</time></trkpt>
        <trkpt lat="29.505246" lon="103.304342"><ele>2358</ele><time>2026-08-08T17:14:44.000Z</time></trkpt>
        <trkpt lat="29.504988" lon="103.304527"><ele>2363</ele><time>2026-08-08T17:16:07.000Z</time></trkpt>
        <trkpt lat="29.505063" lon="103.305116"><ele>2367</ele><time>2026-08-08T17:20:56.000Z</time></trkpt>
        <trkpt lat="29.504787" lon="103.305347"><ele>2372</ele><time>2026-08-08T17:22:52.000Z</time></trkpt>
        <trkpt lat="29.504694" lon="103.306167"><ele>2383</ele><time>2026-08-08T17:26:05.000Z</time></trkpt>
        <trkpt lat="29.503858" lon="103.307558"><ele>2461</ele><time>2026-08-08T17:37:54.000Z</time></trkpt>
        <trkpt lat="29.503701" lon="103.308231"><ele>2488</ele><time>2026-08-08T17:40:52.000Z</time></trkpt>
        <trkpt lat="29.503484" lon="103.308413"><ele>2502</ele><time>2026-08-08T17:43:32.000Z</time></trkpt>
        <trkpt lat="29.503542" lon="103.309599"><ele>2538</ele><time>2026-08-08T17:48:21.000Z</time></trkpt>
        <trkpt lat="29.503377" lon="103.309798"><ele>2549</ele><time>2026-08-08T17:50:02.000Z</time></trkpt>
        <trkpt lat="29.503354" lon="103.310219"><ele>2555</ele><time>2026-08-08T17:51:48.000Z</time></trkpt>
        <trkpt lat="29.503553" lon="103.310678"><ele>2570</ele><time>2026-08-08T17:53:59.000Z</time></trkpt>
        <trkpt lat="29.503113" lon="103.311106"><ele>2598</ele><time>2026-08-08T17:57:47.000Z</time></trkpt>
        <trkpt lat="29.502902" lon="103.311611"><ele>2620</ele><time>2026-08-08T17:59:41.000Z</time></trkpt>
        <trkpt lat="29.502783" lon="103.312766"><ele>2648</ele><time>2026-08-08T18:04:50.000Z</time></trkpt>
        <trkpt lat="29.502876" lon="103.31305"><ele>2657</ele><time>2026-08-08T18:06:33.000Z</time></trkpt>
        <trkpt lat="29.503187" lon="103.313202"><ele>2671</ele><time>2026-08-08T18:08:06.000Z</time></trkpt>
        <trkpt lat="29.503639" lon="103.314917"><ele>2703</ele><time>2026-08-08T18:14:33.000Z</time></trkpt>
        <trkpt lat="29.504136" lon="103.315224"><ele>2714</ele><time>2026-08-08T18:16:20.000Z</time></trkpt>
        <trkpt lat="29.504576" lon="103.316086"><ele>2705</ele><time>2026-08-08T18:18:43.000Z</time></trkpt>
        <trkpt lat="29.505163" lon="103.316455"><ele>2730</ele><time>2026-08-08T18:21:51.000Z</time></trkpt>
        <trkpt lat="29.505333" lon="103.316764"><ele>2741</ele><time>2026-08-08T18:23:36.000Z</time></trkpt>
        <trkpt lat="29.505195" lon="103.317512"><ele>2770</ele><time>2026-08-08T18:27:31.000Z</time></trkpt>
        <trkpt lat="29.505313" lon="103.318362"><ele>2785</ele><time>2026-08-08T18:30:07.000Z</time></trkpt>
        <trkpt lat="29.505557" lon="103.318451"><ele>2795</ele><time>2026-08-08T18:31:18.000Z</time></trkpt>
        <trkpt lat="29.505899" lon="103.319016"><ele>2804</ele><time>2026-08-08T18:33:29.000Z</time></trkpt>
        <trkpt lat="29.50618" lon="103.320073"><ele>2816</ele><time>2026-08-08T18:45:20.000Z</time></trkpt>
        <trkpt lat="29.505869" lon="103.32069"><ele>2837</ele><time>2026-08-08T18:47:52.000Z</time></trkpt>
        <trkpt lat="29.506223" lon="103.322406"><ele>2906</ele><time>2026-08-08T19:01:46.000Z</time></trkpt>
        <trkpt lat="29.506467" lon="103.322956"><ele>2915</ele><time>2026-08-08T19:03:50.000Z</time></trkpt>
        <trkpt lat="29.507429" lon="103.323778"><ele>2911</ele><time>2026-08-08T19:07:22.000Z</time></trkpt>
        <trkpt lat="29.507157" lon="103.324485"><ele>2917</ele><time>2026-08-08T19:11:36.000Z</time></trkpt>
        <trkpt lat="29.507099" lon="103.325481"><ele>2933</ele><time>2026-08-08T19:17:57.000Z</time></trkpt>
        <trkpt lat="29.507788" lon="103.326091"><ele>2963</ele><time>2026-08-08T19:23:31.000Z</time></trkpt>
        <trkpt lat="29.507355" lon="103.326689"><ele>2981</ele><time>2026-08-08T19:26:11.000Z</time></trkpt>
        <trkpt lat="29.507119" lon="103.32671"><ele>2986</ele><time>2026-08-08T19:28:13.000Z</time></trkpt>
        <trkpt lat="29.507106" lon="103.327028"><ele>2995</ele><time>2026-08-08T19:31:30.000Z</time></trkpt>
        <trkpt lat="29.50753" lon="103.32766"><ele>3001</ele><time>2026-08-08T19:33:24.000Z</time></trkpt>
        <trkpt lat="29.507972" lon="103.327557"><ele>2999</ele><time>2026-08-08T19:34:23.000Z</time></trkpt>
        <trkpt lat="29.508374" lon="103.328273"><ele>3009</ele><time>2026-08-08T19:36:41.000Z</time></trkpt>
        <trkpt lat="29.508874" lon="103.328332"><ele>3004</ele><time>2026-08-08T19:39:04.000Z</time></trkpt>
        <trkpt lat="29.509142" lon="103.328091"><ele>3001</ele><time>2026-08-08T19:39:49.000Z</time></trkpt>
        <trkpt lat="29.509712" lon="103.328164"><ele>2994</ele><time>2026-08-08T19:41:06.000Z</time></trkpt>
        <trkpt lat="29.509848" lon="103.328336"><ele>2997</ele><time>2026-08-08T19:42:34.000Z</time></trkpt>
        <trkpt lat="29.509768" lon="103.328575"><ele>3004</ele><time>2026-08-08T19:44:00.000Z</time></trkpt>
        <trkpt lat="29.510777" lon="103.330298"><ele>3021</ele><time>2026-08-08T19:49:46.000Z</time></trkpt>
        <trkpt lat="29.510614" lon="103.330701"><ele>3038</ele><time>2026-08-08T19:52:36.000Z</time></trkpt>
        <trkpt lat="29.510186" lon="103.330928"><ele>3048</ele><time>2026-08-08T19:54:08.000Z</time></trkpt>
        <trkpt lat="29.509966" lon="103.331259"><ele>3060</ele><time>2026-08-08T19:55:23.000Z</time></trkpt>
        <trkpt lat="29.510113" lon="103.331985"><ele>3075</ele><time>2026-08-08T19:59:02.000Z</time></trkpt>
        <trkpt lat="29.509985" lon="103.332318"><ele>3080</ele><time>2026-08-08T20:04:28.000Z</time></trkpt>
        <trkpt lat="29.510032" lon="103.332191"><ele>3088</ele><time>2026-08-08T20:27:09.000Z</time></trkpt>
        <trkpt lat="29.509992" lon="103.332318"><ele>3089</ele><time>2026-08-08T20:33:31.000Z</time></trkpt>
        <trkpt lat="29.510139" lon="103.332354"><ele>3091</ele><time>2026-08-08T20:35:26.000Z</time></trkpt>
        <trkpt lat="29.510003" lon="103.331997"><ele>3091</ele><time>2026-08-08T20:36:26.000Z</time></trkpt>
        <trkpt lat="29.509997" lon="103.332329"><ele>3091</ele><time>2026-08-08T20:37:32.000Z</time></trkpt>
        <trkpt lat="29.51018" lon="103.332294"><ele>3093</ele><time>2026-08-08T20:48:23.000Z</time></trkpt>
        <trkpt lat="29.509992" lon="103.332322"><ele>3095</ele><time>2026-08-08T21:17:18.000Z</time></trkpt>
        <trkpt lat="29.510113" lon="103.332069"><ele>3095</ele><time>2026-08-08T21:17:52.000Z</time></trkpt>
        <trkpt lat="29.509937" lon="103.331279"><ele>3078</ele><time>2026-08-08T21:20:13.000Z</time></trkpt>
        <trkpt lat="29.510209" lon="103.330914"><ele>3067</ele><time>2026-08-08T21:22:47.000Z</time></trkpt>
        <trkpt lat="29.510603" lon="103.330729"><ele>3056</ele><time>2026-08-08T21:23:49.000Z</time></trkpt>
        <trkpt lat="29.51078" lon="103.33031"><ele>3043</ele><time>2026-08-08T21:24:46.000Z</time></trkpt>
        <trkpt lat="29.5106" lon="103.329928"><ele>3039</ele><time>2026-08-08T21:25:44.000Z</time></trkpt>
        <trkpt lat="29.510769" lon="103.329846"><ele>3038</ele><time>2026-08-08T21:26:58.000Z</time></trkpt>
        <trkpt lat="29.510657" lon="103.330004"><ele>3039</ele><time>2026-08-08T21:31:05.000Z</time></trkpt>
        <trkpt lat="29.510271" lon="103.329504"><ele>3044</ele><time>2026-08-08T21:32:26.000Z</time></trkpt>
        <trkpt lat="29.509647" lon="103.328156"><ele>3019</ele><time>2026-08-08T21:38:07.000Z</time></trkpt>
        <trkpt lat="29.509169" lon="103.328076"><ele>3024</ele><time>2026-08-08T21:39:16.000Z</time></trkpt>
        <trkpt lat="29.508907" lon="103.328343"><ele>3028</ele><time>2026-08-08T21:40:25.000Z</time></trkpt>
        <trkpt lat="29.508385" lon="103.32832"><ele>3032</ele><time>2026-08-08T21:44:27.000Z</time></trkpt>
        <trkpt lat="29.507914" lon="103.327619"><ele>3025</ele><time>2026-08-08T21:46:17.000Z</time></trkpt>
        <trkpt lat="29.507574" lon="103.327721"><ele>3027</ele><time>2026-08-08T21:49:33.000Z</time></trkpt>
        <trkpt lat="29.507059" lon="103.327044"><ele>3020</ele><time>2026-08-08T21:51:38.000Z</time></trkpt>
        <trkpt lat="29.507122" lon="103.326729"><ele>3013</ele><time>2026-08-08T21:52:30.000Z</time></trkpt>
        <trkpt lat="29.507349" lon="103.326665"><ele>3010</ele><time>2026-08-08T21:53:02.000Z</time></trkpt>
        <trkpt lat="29.507767" lon="103.326056"><ele>2983</ele><time>2026-08-08T21:57:00.000Z</time></trkpt>
        <trkpt lat="29.507084" lon="103.325488"><ele>2964</ele><time>2026-08-08T21:59:27.000Z</time></trkpt>
        <trkpt lat="29.507144" lon="103.32448"><ele>2950</ele><time>2026-08-08T22:03:26.000Z</time></trkpt>
        <trkpt lat="29.507403" lon="103.323814"><ele>2944</ele><time>2026-08-08T22:05:07.000Z</time></trkpt>
        <trkpt lat="29.506447" lon="103.323014"><ele>2948</ele><time>2026-08-08T22:08:27.000Z</time></trkpt>
        <trkpt lat="29.506194" lon="103.322453"><ele>2938</ele><time>2026-08-08T22:09:42.000Z</time></trkpt>
        <trkpt lat="29.506294" lon="103.322099"><ele>2929</ele><time>2026-08-08T22:10:44.000Z</time></trkpt>
        <trkpt lat="29.50599" lon="103.321528"><ele>2903</ele><time>2026-08-08T22:12:53.000Z</time></trkpt>
        <trkpt lat="29.505836" lon="103.320729"><ele>2876</ele><time>2026-08-08T22:15:46.000Z</time></trkpt>
        <trkpt lat="29.506144" lon="103.319976"><ele>2855</ele><time>2026-08-08T22:18:14.000Z</time></trkpt>
        <trkpt lat="29.505865" lon="103.319007"><ele>2845</ele><time>2026-08-08T22:20:09.000Z</time></trkpt>
        <trkpt lat="29.505285" lon="103.31821"><ele>2824</ele><time>2026-08-08T22:22:46.000Z</time></trkpt>
        <trkpt lat="29.505201" lon="103.317488"><ele>2810</ele><time>2026-08-08T22:24:20.000Z</time></trkpt>
        <trkpt lat="29.50538" lon="103.317085"><ele>2793</ele><time>2026-08-08T22:25:52.000Z</time></trkpt>
        <trkpt lat="29.505338" lon="103.316757"><ele>2783</ele><time>2026-08-08T22:26:46.000Z</time></trkpt>
        <trkpt lat="29.505192" lon="103.316447"><ele>2776</ele><time>2026-08-08T22:27:36.000Z</time></trkpt>
        <trkpt lat="29.504545" lon="103.316086"><ele>2750</ele><time>2026-08-08T22:31:09.000Z</time></trkpt>
        <trkpt lat="29.504065" lon="103.315189"><ele>2759</ele><time>2026-08-08T22:35:06.000Z</time></trkpt>
        <trkpt lat="29.503622" lon="103.314921"><ele>2750</ele><time>2026-08-08T22:36:15.000Z</time></trkpt>
        <trkpt lat="29.503191" lon="103.313198"><ele>2715</ele><time>2026-08-08T22:42:09.000Z</time></trkpt>
        <trkpt lat="29.502877" lon="103.313048"><ele>2703</ele><time>2026-08-08T22:42:58.000Z</time></trkpt>
        <trkpt lat="29.50279" lon="103.312768"><ele>2696</ele><time>2026-08-08T22:43:44.000Z</time></trkpt>
        <trkpt lat="29.502946" lon="103.311503"><ele>2660</ele><time>2026-08-08T22:50:25.000Z</time></trkpt>
        <trkpt lat="29.50311" lon="103.311084"><ele>2642</ele><time>2026-08-08T22:53:11.000Z</time></trkpt>
        <trkpt lat="29.50356" lon="103.310624"><ele>2613</ele><time>2026-08-08T22:56:41.000Z</time></trkpt>
        <trkpt lat="29.503376" lon="103.310189"><ele>2601</ele><time>2026-08-08T22:58:07.000Z</time></trkpt>
        <trkpt lat="29.503573" lon="103.309201"><ele>2574</ele><time>2026-08-08T23:01:44.000Z</time></trkpt>
        <trkpt lat="29.50348" lon="103.308399"><ele>2545</ele><time>2026-08-08T23:04:48.000Z</time></trkpt>
        <trkpt lat="29.503682" lon="103.308243"><ele>2535</ele><time>2026-08-08T23:06:45.000Z</time></trkpt>
        <trkpt lat="29.504371" lon="103.306592"><ele>2451</ele><time>2026-08-08T23:16:23.000Z</time></trkpt>
        <trkpt lat="29.504599" lon="103.306447"><ele>2440</ele><time>2026-08-08T23:17:29.000Z</time></trkpt>
        <trkpt lat="29.504789" lon="103.30533"><ele>2419</ele><time>2026-08-08T23:20:51.000Z</time></trkpt>
        <trkpt lat="29.505071" lon="103.305121"><ele>2414</ele><time>2026-08-08T23:23:28.000Z</time></trkpt>
        <trkpt lat="29.50499" lon="103.304521"><ele>2411</ele><time>2026-08-08T23:25:48.000Z</time></trkpt>
        <trkpt lat="29.505203" lon="103.304419"><ele>2409</ele><time>2026-08-08T23:26:20.000Z</time></trkpt>
        <trkpt lat="29.50548" lon="103.303764"><ele>2396</ele><time>2026-08-08T23:31:26.000Z</time></trkpt>
        <trkpt lat="29.505099" lon="103.30314"><ele>2383</ele><time>2026-08-08T23:33:11.000Z</time></trkpt>
        <trkpt lat="29.504425" lon="103.303294"><ele>2369</ele><time>2026-08-08T23:34:35.000Z</time></trkpt>
        <trkpt lat="29.504695" lon="103.302478"><ele>2359</ele><time>2026-08-08T23:36:07.000Z</time></trkpt>
        <trkpt lat="29.50351" lon="103.300361"><ele>2345</ele><time>2026-08-08T23:40:23.000Z</time></trkpt>
        <trkpt lat="29.503412" lon="103.299048"><ele>2334</ele><time>2026-08-08T23:42:17.000Z</time></trkpt>
        <trkpt lat="29.503555" lon="103.298849"><ele>2333</ele><time>2026-08-08T23:42:39.000Z</time></trkpt>
        <trkpt lat="29.504012" lon="103.298706"><ele>2332</ele><time>2026-08-08T23:43:23.000Z</time></trkpt>
        <trkpt lat="29.50427" lon="103.299086"><ele>2330</ele><time>2026-08-08T23:44:05.000Z</time></trkpt>
        <trkpt lat="29.505173" lon="103.299265"><ele>2318</ele><time>2026-08-08T23:45:43.000Z</time></trkpt>
        <trkpt lat="29.505614" lon="103.298363"><ele>2311</ele><time>2026-08-08T23:47:17.000Z</time></trkpt>
        <trkpt lat="29.506032" lon="103.298165"><ele>2307</ele><time>2026-08-08T23:48:01.000Z</time></trkpt>
        <trkpt lat="29.506246" lon="103.297861"><ele>2304</ele><time>2026-08-08T23:48:36.000Z</time></trkpt>
        <trkpt lat="29.506589" lon="103.297782"><ele>2299</ele><time>2026-08-08T23:49:08.000Z</time></trkpt>
        <trkpt lat="29.506795" lon="103.29444"><ele>2258</ele><time>2026-08-08T23:54:27.000Z</time></trkpt>
        <trkpt lat="29.505973" lon="103.293901"><ele>2241</ele><time>2026-08-08T23:56:35.000Z</time></trkpt>
        <trkpt lat="29.505986" lon="103.293411"><ele>2234</ele><time>2026-08-08T23:57:23.000Z</time></trkpt>
        <trkpt lat="29.506283" lon="103.293022"><ele>2228</ele><time>2026-08-08T23:58:21.000Z</time></trkpt>
        <trkpt lat="29.505758" lon="103.292169"><ele>2215</ele><time>2026-08-08T23:59:59.000Z</time></trkpt>
        <trkpt lat="29.50531" lon="103.292012"><ele>2206</ele><time>2026-08-09T00:01:02.000Z</time></trkpt>
        <trkpt lat="29.504411" lon="103.291023"><ele>2194</ele><time>2026-08-09T00:03:08.000Z</time></trkpt>
        <trkpt lat="29.504306" lon="103.290615"><ele>2189</ele><time>2026-08-09T00:03:48.000Z</time></trkpt>
        <trkpt lat="29.504508" lon="103.290205"><ele>2183</ele><time>2026-08-09T00:04:41.000Z</time></trkpt>
        <trkpt lat="29.503987" lon="103.290091"><ele>2177</ele><time>2026-08-09T00:05:41.000Z</time></trkpt>
        <trkpt lat="29.503885" lon="103.289812"><ele>2176</ele><time>2026-08-09T00:06:06.000Z</time></trkpt>
        <trkpt lat="29.503267" lon="103.2898"><ele>2169</ele><time>2026-08-09T00:07:18.000Z</time></trkpt>
        <trkpt lat="29.502604" lon="103.288234"><ele>2155</ele><time>2026-08-09T00:09:43.000Z</time></trkpt>
        <trkpt lat="29.502255" lon="103.288211"><ele>2149</ele><time>2026-08-09T00:10:19.000Z</time></trkpt>
        <trkpt lat="29.501102" lon="103.288634"><ele>2141</ele><time>2026-08-09T00:12:13.000Z</time></trkpt>
        <trkpt lat="29.500935" lon="103.288294"><ele>2138</ele><time>2026-08-09T00:12:59.000Z</time></trkpt>
        <trkpt lat="29.501356" lon="103.287852"><ele>2130</ele><time>2026-08-09T00:14:01.000Z</time></trkpt>
        <trkpt lat="29.50125" lon="103.287278"><ele>2123</ele><time>2026-08-09T00:14:53.000Z</time></trkpt>
        <trkpt lat="29.501443" lon="103.286888"><ele>2118</ele><time>2026-08-09T00:15:37.000Z</time></trkpt>
        <trkpt lat="29.500829" lon="103.286785"><ele>2110</ele><time>2026-08-09T00:16:43.000Z</time></trkpt>
        <trkpt lat="29.500361" lon="103.286288"><ele>2102</ele><time>2026-08-09T00:18:37.000Z</time></trkpt>
        <trkpt lat="29.499429" lon="103.286027"><ele>2096</ele><time>2026-08-09T00:20:11.000Z</time></trkpt>
        <trkpt lat="29.499066" lon="103.285461"><ele>2086</ele><time>2026-08-09T00:21:13.000Z</time></trkpt>
        <trkpt lat="29.499104" lon="103.284962"><ele>2081</ele><time>2026-08-09T00:21:57.000Z</time></trkpt>
        <trkpt lat="29.497665" lon="103.284616"><ele>2063</ele><time>2026-08-09T00:24:45.000Z</time></trkpt>
        <trkpt lat="29.497149" lon="103.283917"><ele>2052</ele><time>2026-08-09T00:26:02.000Z</time></trkpt>
        <trkpt lat="29.497217" lon="103.283678"><ele>2050</ele><time>2026-08-09T00:26:23.000Z</time></trkpt>
        <trkpt lat="29.496923" lon="103.283072"><ele>2045</ele><time>2026-08-09T00:27:24.000Z</time></trkpt>
        <trkpt lat="29.496558" lon="103.283511"><ele>2046</ele><time>2026-08-09T00:28:21.000Z</time></trkpt>
        <trkpt lat="29.496013" lon="103.283562"><ele>2043</ele><time>2026-08-09T00:29:15.000Z</time></trkpt>
        <trkpt lat="29.495602" lon="103.283258"><ele>2040</ele><time>2026-08-09T00:29:59.000Z</time></trkpt>
        <trkpt lat="29.495254" lon="103.283338"><ele>2037</ele><time>2026-08-09T00:30:34.000Z</time></trkpt>
        <trkpt lat="29.494622" lon="103.282898"><ele>2032</ele><time>2026-08-09T00:31:44.000Z</time></trkpt>
        <trkpt lat="29.493824" lon="103.282751"><ele>2028</ele><time>2026-08-09T00:32:58.000Z</time></trkpt>
        <trkpt lat="29.493476" lon="103.282404"><ele>2026</ele><time>2026-08-09T00:33:38.000Z</time></trkpt>
        <trkpt lat="29.492906" lon="103.282209"><ele>2025</ele><time>2026-08-09T00:34:32.000Z</time></trkpt>
        <trkpt lat="29.492412" lon="103.282607"><ele>2022</ele><time>2026-08-09T00:35:30.000Z</time></trkpt>
        <trkpt lat="29.49222" lon="103.282199"><ele>2020</ele><time>2026-08-09T00:36:17.000Z</time></trkpt>
        <trkpt lat="29.491778" lon="103.28322"><ele>2016</ele><time>2026-08-09T00:37:55.000Z</time></trkpt>
        <trkpt lat="29.491216" lon="103.283327"><ele>2011</ele><time>2026-08-09T00:38:47.000Z</time></trkpt>
        <trkpt lat="29.491027" lon="103.283141"><ele>2010</ele><time>2026-08-09T00:39:11.000Z</time></trkpt>
        <trkpt lat="29.490535" lon="103.283829"><ele>2005</ele><time>2026-08-09T00:40:27.000Z</time></trkpt>
        <trkpt lat="29.490057" lon="103.283589"><ele>2001</ele><time>2026-08-09T00:41:12.000Z</time></trkpt>
        <trkpt lat="29.489711" lon="103.283605"><ele>1998</ele><time>2026-08-09T00:41:49.000Z</time></trkpt>
        <trkpt lat="29.489284" lon="103.284152"><ele>1989</ele><time>2026-08-09T00:42:53.000Z</time></trkpt>
        <trkpt lat="29.48872" lon="103.283877"><ele>1981</ele><time>2026-08-09T00:43:55.000Z</time></trkpt>
        <trkpt lat="29.488347" lon="103.284062"><ele>1979</ele><time>2026-08-09T00:44:37.000Z</time></trkpt>
        <trkpt lat="29.487486" lon="103.283982"><ele>1972</ele><time>2026-08-09T00:46:04.000Z</time></trkpt>
        <trkpt lat="29.487241" lon="103.284088"><ele>1968</ele><time>2026-08-09T00:46:32.000Z</time></trkpt>
        <trkpt lat="29.486816" lon="103.283623"><ele>1962</ele><time>2026-08-09T00:47:38.000Z</time></trkpt>
        <trkpt lat="29.486552" lon="103.283848"><ele>1958</ele><time>2026-08-09T00:48:12.000Z</time></trkpt>
        <trkpt lat="29.485925" lon="103.283966"><ele>1947</ele><time>2026-08-09T00:49:27.000Z</time></trkpt>
        <trkpt lat="29.484525" lon="103.283562"><ele>1929</ele><time>2026-08-09T00:52:20.000Z</time></trkpt>
        <trkpt lat="29.484329" lon="103.283879"><ele>1929</ele><time>2026-08-09T00:52:54.000Z</time></trkpt>
        <trkpt lat="29.483593" lon="103.28431"><ele>1926</ele><time>2026-08-09T00:54:18.000Z</time></trkpt>
        <trkpt lat="29.482852" lon="103.284431"><ele>1925</ele><time>2026-08-09T00:55:43.000Z</time></trkpt>
        <trkpt lat="29.482905" lon="103.283858"><ele>1931</ele><time>2026-08-09T00:56:57.000Z</time></trkpt>
        <trkpt lat="29.483287" lon="103.283613"><ele>1937</ele><time>2026-08-09T00:57:44.000Z</time></trkpt>
        <trkpt lat="29.483651" lon="103.282846"><ele>1949</ele><time>2026-08-09T00:59:14.000Z</time></trkpt>
        <trkpt lat="29.483642" lon="103.282497"><ele>1957</ele><time>2026-08-09T00:59:49.000Z</time></trkpt>
        <trkpt lat="29.483433" lon="103.282379"><ele>1959</ele><time>2026-08-09T01:00:15.000Z</time></trkpt>
      </trkseg>
  </trk>
</gpx>